createdAt,value
2019-03-19T00:01:47.458Z,4.50
2019-03-19T00:06:49.078Z,4.39
2019-03-19T00:11:50.654Z,4.36
2019-03-19T00:16:52.268Z,4.29
2019-03-19T00:21:53.852Z,4.15
2019-03-19T00:26:55.568Z,4.12
2019-03-19T00:31:57.166Z,4.16
2019-03-19T00:36:58.767Z,4.26
2019-03-19T00:42:00.519Z,4.30
2019-03-19T00:47:02.111Z,4.34
2019-03-19T00:52:03.683Z,4.28
2019-03-19T00:57:05.345Z,4.26
2019-03-19T01:02:07.086Z,4.11
2019-03-19T01:07:08.756Z,4.20
2019-03-19T01:12:10.430Z,4.21
2019-03-19T01:17:12.193Z,4.11
2019-03-19T01:22:13.737Z,4.05
2019-03-19T01:27:15.287Z,3.98
2019-03-19T01:32:16.864Z,4.00
2019-03-19T01:37:18.597Z,3.93
2019-03-19T01:42:20.169Z,3.86
2019-03-19T01:47:21.773Z,3.85
2019-03-19T01:52:23.494Z,3.91
2019-03-19T01:57:25.403Z,3.88
2019-03-19T02:02:26.960Z,3.83
2019-03-19T02:07:28.520Z,3.83
2019-03-19T02:12:30.125Z,3.76
2019-03-19T02:17:31.935Z,3.71
2019-03-19T02:22:33.555Z,3.61
2019-03-19T02:27:35.226Z,3.55
2019-03-19T02:32:36.787Z,3.50
2019-03-19T02:37:38.489Z,3.44
2019-03-19T02:42:40.094Z,3.39
2019-03-19T02:47:41.774Z,3.40
2019-03-19T02:52:43.518Z,3.36
2019-03-19T02:57:45.217Z,3.35
2019-03-19T03:02:46.987Z,3.36
2019-03-19T03:07:48.669Z,3.29
2019-03-19T03:12:50.281Z,3.26
2019-03-19T03:17:52.014Z,3.19
2019-03-19T03:22:53.623Z,3.11
2019-03-19T03:27:55.303Z,3.19
2019-03-19T03:32:56.941Z,3.23
2019-03-19T03:37:58.613Z,3.21
2019-03-19T03:43:00.196Z,3.13
2019-03-19T03:48:01.820Z,3.10
2019-03-19T03:53:03.549Z,3.02
2019-03-19T03:58:05.308Z,3.04
2019-03-19T04:03:07.105Z,3.05
2019-03-19T04:08:08.798Z,3.04
2019-03-19T04:13:10.531Z,2.97
2019-03-19T04:18:12.276Z,2.98
2019-03-19T04:23:13.960Z,2.98
2019-03-19T04:28:15.559Z,2.98
2019-03-19T04:33:17.187Z,3.04
2019-03-19T04:38:18.727Z,3.11
2019-03-19T04:43:20.406Z,3.14
2019-03-19T04:48:21.962Z,3.09
2019-03-19T04:53:24.395Z,3.07
2019-03-19T04:58:26.039Z,3.08
2019-03-19T05:03:27.633Z,3.08
2019-03-19T05:08:29.179Z,3.03
2019-03-19T05:13:30.762Z,3.04
2019-03-19T05:18:32.392Z,3.02
2019-03-19T05:23:33.921Z,3.11
2019-03-19T05:28:35.525Z,3.09
2019-03-19T05:33:37.074Z,3.11
2019-03-19T05:38:38.688Z,3.08
2019-03-19T05:43:40.344Z,3.06
2019-03-19T05:48:41.990Z,3.12
2019-03-19T05:53:43.643Z,3.16
2019-03-19T05:58:45.183Z,3.13
2019-03-19T06:03:46.773Z,3.21
2019-03-19T06:08:48.360Z,3.23
2019-03-19T06:13:49.901Z,3.30
2019-03-19T06:18:51.611Z,3.29
2019-03-19T06:23:53.190Z,3.32
2019-03-19T06:28:54.760Z,3.33
2019-03-19T06:33:56.341Z,3.39
2019-03-19T06:38:57.890Z,3.43
2019-03-19T06:43:59.464Z,3.47
2019-03-19T06:49:01.040Z,3.49
2019-03-19T06:54:02.698Z,3.52
2019-03-19T06:59:04.284Z,3.59
2019-03-19T07:04:06.091Z,3.69
2019-03-19T07:09:08.026Z,3.88
2019-03-19T07:14:09.705Z,4.07
2019-03-19T07:19:11.391Z,4.14
2019-03-19T07:24:12.955Z,4.14
2019-03-19T07:29:14.546Z,4.14
2019-03-19T07:34:16.104Z,4.18
2019-03-19T07:39:17.683Z,4.24
2019-03-19T07:44:19.236Z,4.30
2019-03-19T07:49:20.797Z,4.30
2019-03-19T07:54:22.349Z,4.31
2019-03-19T07:59:23.890Z,4.37
2019-03-19T08:04:25.428Z,4.43
2019-03-19T08:09:27.087Z,4.51
2019-03-19T08:14:28.688Z,4.51
2019-03-19T08:19:30.262Z,4.58
2019-03-19T08:24:31.813Z,4.73
2019-03-19T08:29:34.689Z,4.80
2019-03-19T08:34:36.479Z,4.72
2019-03-19T08:39:37.991Z,4.83
2019-03-19T08:44:39.607Z,5.01
2019-03-19T08:49:41.219Z,5.14
2019-03-19T08:54:42.808Z,5.25
2019-03-19T08:59:44.361Z,5.27
2019-03-19T09:04:46.182Z,5.37
2019-03-19T09:09:47.726Z,5.58
2019-03-19T09:14:49.286Z,5.67
2019-03-19T09:19:50.841Z,5.51
2019-03-19T09:24:52.472Z,5.35
2019-03-19T09:29:54.124Z,5.28
2019-03-19T09:34:55.697Z,5.23
2019-03-19T09:39:57.246Z,5.15
2019-03-19T09:44:58.904Z,5.07
2019-03-19T09:50:00.423Z,4.64
2019-03-19T09:55:02.130Z,4.29
2019-03-19T10:00:06.423Z,4.39
2019-03-19T10:05:08.103Z,4.66
2019-03-19T10:10:11.278Z,4.82
2019-03-19T10:15:13.131Z,4.83
2019-03-19T10:20:14.767Z,4.80
2019-03-19T10:25:16.411Z,4.84
2019-03-19T10:30:18.050Z,4.99
2019-03-19T10:35:19.750Z,5.26
2019-03-19T10:40:21.517Z,5.34
2019-03-19T10:45:23.269Z,5.55
2019-03-19T10:50:25.235Z,5.67
2019-03-19T10:55:26.755Z,5.83
2019-03-19T11:00:28.409Z,6.03
2019-03-19T11:05:30.086Z,6.03
2019-03-19T11:10:31.623Z,5.92
2019-03-19T11:15:33.301Z,5.82
2019-03-19T11:20:35.197Z,6.04
2019-03-19T11:25:36.748Z,6.23
2019-03-19T11:30:38.390Z,6.47
2019-03-19T11:35:40.028Z,6.94
2019-03-19T11:40:41.777Z,9.35
2019-03-19T11:45:43.409Z,10.04
2019-03-19T11:50:45.014Z,8.27
2019-03-19T11:55:46.710Z,7.24
2019-03-19T12:00:51.968Z,6.67
2019-03-19T12:05:55.073Z,6.37
2019-03-19T12:10:56.649Z,6.22
2019-03-19T12:15:58.244Z,6.09
2019-03-19T12:21:01.010Z,6.03
2019-03-19T12:26:03.065Z,5.98
2019-03-19T12:31:04.740Z,5.94
2019-03-19T12:36:06.429Z,6.00
2019-03-19T12:41:07.971Z,6.14
2019-03-19T12:46:09.953Z,6.54
2019-03-19T12:51:11.525Z,7.59
2019-03-19T12:56:13.135Z,7.17
2019-03-19T13:01:15.547Z,6.70
2019-03-19T13:06:17.355Z,6.49
2019-03-19T13:11:18.940Z,6.52
2019-03-19T13:16:20.496Z,7.17
2019-03-19T13:21:22.052Z,7.58
2019-03-19T13:26:23.746Z,7.82
2019-03-19T13:31:25.302Z,7.82
2019-03-19T13:36:26.856Z,7.83
2019-03-19T13:41:28.397Z,7.29
2019-03-19T13:46:30.122Z,7.04
2019-03-19T13:51:31.715Z,7.07
2019-03-19T13:56:33.299Z,7.21
2019-03-19T14:01:34.979Z,7.33
2019-03-19T14:06:36.542Z,8.38
2019-03-19T14:11:38.110Z,8.30
2019-03-19T14:16:39.699Z,9.68
2019-03-19T14:21:41.537Z,10.36
2019-03-19T14:26:43.228Z,10.42
2019-03-19T14:31:45.009Z,9.90
2019-03-19T14:36:46.948Z,8.79
2019-03-19T14:41:48.871Z,8.37
2019-03-19T14:46:50.479Z,8.10
2019-03-19T14:51:52.211Z,8.13
2019-03-19T14:56:53.796Z,8.20
2019-03-19T15:01:55.523Z,8.10
2019-03-19T15:06:57.213Z,7.95
2019-03-19T15:11:58.890Z,7.90
2019-03-19T15:17:04.790Z,7.80
2019-03-19T15:22:04.368Z,7.63
2019-03-19T15:27:06.204Z,7.47
2019-03-19T15:32:07.877Z,7.33
2019-03-19T15:37:14.369Z,7.23
2019-03-19T15:42:16.230Z,7.18
2019-03-19T15:47:17.927Z,7.21
2019-03-19T15:52:22.143Z,7.27
2019-03-19T15:57:23.848Z,7.31
2019-03-19T16:02:25.595Z,7.39
2019-03-19T16:07:27.286Z,7.46
2019-03-19T16:12:28.799Z,7.49
2019-03-19T16:17:30.593Z,7.45
2019-03-19T16:22:32.289Z,7.55
2019-03-19T16:27:34.365Z,7.59
2019-03-19T16:32:35.976Z,7.57
2019-03-19T16:37:37.760Z,7.19
2019-03-19T16:42:39.327Z,7.04
2019-03-19T16:47:40.993Z,6.95
2019-03-19T16:52:42.691Z,6.89
2019-03-19T16:57:44.366Z,6.85
2019-03-19T17:02:48.030Z,6.84
2019-03-19T17:07:49.976Z,6.87
2019-03-19T17:12:51.641Z,6.83
2019-03-19T17:17:53.433Z,6.80
2019-03-19T17:22:55.006Z,6.78
2019-03-19T17:27:59.027Z,6.70
2019-03-19T17:33:00.728Z,6.66
2019-03-19T17:38:02.300Z,6.63
2019-03-19T17:43:04.134Z,6.67
2019-03-19T17:48:15.792Z,6.69
2019-03-19T17:53:09.246Z,6.65
2019-03-19T17:58:10.895Z,6.59
2019-03-19T18:03:12.566Z,6.60
2019-03-19T18:08:14.100Z,6.63
2019-03-19T18:13:15.676Z,6.62
2019-03-19T18:18:17.238Z,6.60
2019-03-19T18:23:18.788Z,6.59
2019-03-19T18:28:20.419Z,6.61
2019-03-19T18:33:22.020Z,6.59
2019-03-19T18:38:23.616Z,6.59
2019-03-19T18:43:25.194Z,6.56
2019-03-19T18:48:26.788Z,6.48
2019-03-19T18:53:28.413Z,6.47
2019-03-19T18:58:30.014Z,6.46
2019-03-19T19:03:31.581Z,6.48
2019-03-19T19:08:33.131Z,6.46
2019-03-19T19:13:34.911Z,6.52
2019-03-19T19:18:36.529Z,6.47
2019-03-19T19:23:38.076Z,6.48
2019-03-19T19:28:39.690Z,6.46
2019-03-19T19:33:41.259Z,6.49
2019-03-19T19:38:42.829Z,6.42
2019-03-19T19:43:44.405Z,6.41
2019-03-19T19:48:46.030Z,6.39
2019-03-19T19:53:47.895Z,6.37
2019-03-19T19:58:49.523Z,6.37
2019-03-19T20:03:51.933Z,6.37
2019-03-19T20:08:53.654Z,6.31
2019-03-19T20:13:55.180Z,6.27
2019-03-19T20:18:56.735Z,6.32
2019-03-19T20:23:58.411Z,6.35
2019-03-19T20:28:59.964Z,6.35
2019-03-19T20:34:01.523Z,6.33
2019-03-19T20:39:06.224Z,6.32
2019-03-19T20:44:07.878Z,6.28
2019-03-19T20:49:09.405Z,6.27
2019-03-19T20:54:10.949Z,6.24
2019-03-19T20:59:12.564Z,6.29
2019-03-19T21:04:14.212Z,6.26
2019-03-19T21:09:15.783Z,6.29
2019-03-19T21:14:22.431Z,6.29
2019-03-19T21:19:24.197Z,6.27
2019-03-19T21:24:26.003Z,6.28
2019-03-19T21:29:27.835Z,6.31
2019-03-19T21:34:29.620Z,6.40
2019-03-19T21:39:31.491Z,6.42
2019-03-19T21:44:33.190Z,6.43
2019-03-19T21:49:34.775Z,6.42
2019-03-19T21:54:36.538Z,6.39
2019-03-19T21:59:38.114Z,6.38
2019-03-19T22:04:39.991Z,6.37
2019-03-19T22:09:41.738Z,6.40
2019-03-19T22:14:43.295Z,6.40
2019-03-19T22:19:45.203Z,6.40
2019-03-19T22:24:47.058Z,6.38
2019-03-19T22:29:48.700Z,6.36
2019-03-19T22:34:50.506Z,6.30
2019-03-19T22:39:52.278Z,6.30
2019-03-19T22:44:54.254Z,6.25
2019-03-19T22:49:56.188Z,6.25
2019-03-19T22:54:58.011Z,6.22
2019-03-19T22:59:59.752Z,6.19
2019-03-19T23:05:01.860Z,6.21
2019-03-19T23:10:04.476Z,6.20
2019-03-19T23:15:08.358Z,6.15
2019-03-19T23:20:10.252Z,6.12
2019-03-19T23:25:12.264Z,6.08
2019-03-19T23:30:14.006Z,5.90
2019-03-19T23:35:15.717Z,5.85
2019-03-19T23:40:17.413Z,5.86
2019-03-19T23:45:19.215Z,5.89
2019-03-19T23:50:20.841Z,5.91
2019-03-19T23:55:22.647Z,5.92
